createdAt,value
2018-07-03T00:00:54.302Z,16.31
2018-07-03T00:03:23.693Z,16.19
2018-07-03T00:05:51.504Z,16.28
2018-07-03T00:08:19.433Z,16.17
2018-07-03T00:10:47.300Z,16.11
2018-07-03T00:13:15.177Z,16.14
2018-07-03T00:15:43.218Z,16.06
2018-07-03T00:18:11.299Z,15.99
2018-07-03T00:20:39.167Z,15.98
2018-07-03T00:23:07.042Z,15.89
2018-07-03T00:25:34.898Z,15.84
2018-07-03T00:28:02.832Z,15.91
2018-07-03T00:30:30.649Z,15.88
2018-07-03T00:32:58.569Z,15.82
2018-07-03T00:35:26.467Z,15.77
2018-07-03T00:37:54.341Z,15.89
2018-07-03T00:40:22.217Z,15.76
2018-07-03T00:42:50.113Z,15.69
2018-07-03T00:45:17.977Z,15.64
2018-07-03T00:47:45.874Z,15.67
2018-07-03T00:50:13.784Z,15.68
2018-07-03T00:52:41.661Z,15.64
2018-07-03T00:55:09.459Z,15.53
2018-07-03T00:57:37.352Z,15.50
2018-07-03T01:00:22.732Z,15.43
2018-07-03T01:02:50.746Z,15.46
2018-07-03T01:05:18.669Z,15.44
2018-07-03T01:07:46.730Z,15.29
2018-07-03T01:10:14.602Z,15.25
2018-07-03T01:12:42.534Z,15.28
2018-07-03T01:15:10.401Z,15.28
2018-07-03T01:17:38.321Z,15.26
2018-07-03T01:20:06.277Z,15.25
2018-07-03T01:22:34.200Z,15.13
2018-07-03T01:25:02.132Z,15.05
2018-07-03T01:27:29.942Z,14.97
2018-07-03T01:29:57.901Z,15.03
2018-07-03T01:32:25.757Z,15.17
2018-07-03T01:34:53.633Z,15.11
2018-07-03T01:37:21.510Z,14.86
2018-07-03T01:39:49.384Z,14.95
2018-07-03T01:42:17.289Z,14.82
2018-07-03T01:44:45.085Z,14.84
2018-07-03T01:47:13.014Z,14.81
2018-07-03T01:49:40.917Z,14.89
2018-07-03T01:52:08.760Z,14.75
2018-07-03T01:54:36.711Z,14.78
2018-07-03T01:57:04.649Z,14.66
2018-07-03T01:59:32.568Z,14.66
2018-07-03T02:02:00.485Z,14.54
2018-07-03T02:04:28.453Z,14.60
2018-07-03T02:06:56.428Z,14.63
2018-07-03T02:09:24.376Z,14.43
2018-07-03T02:11:52.228Z,14.27
2018-07-03T02:14:20.124Z,14.14
2018-07-03T02:16:48.026Z,14.17
2018-07-03T02:19:15.897Z,14.20
2018-07-03T02:21:43.761Z,14.17
2018-07-03T02:24:11.765Z,14.14
2018-07-03T02:26:39.684Z,14.00
2018-07-03T02:29:07.549Z,13.98
2018-07-03T02:31:35.489Z,14.03
2018-07-03T02:34:03.423Z,14.02
2018-07-03T02:36:31.352Z,13.95
2018-07-03T02:38:59.212Z,13.86
2018-07-03T02:41:27.073Z,13.85
2018-07-03T02:43:54.928Z,13.79
2018-07-03T02:46:22.817Z,13.78
2018-07-03T02:48:50.621Z,13.74
2018-07-03T02:51:18.552Z,13.81
2018-07-03T02:53:46.447Z,13.75
2018-07-03T02:56:14.309Z,13.59
2018-07-03T02:58:42.168Z,13.55
2018-07-03T03:01:10.956Z,13.48
2018-07-03T03:03:38.841Z,13.41
2018-07-03T03:06:06.682Z,13.44
2018-07-03T03:08:34.561Z,13.35
2018-07-03T03:11:02.402Z,13.29
2018-07-03T03:13:30.286Z,13.24
2018-07-03T03:15:58.127Z,13.28
2018-07-03T03:18:25.933Z,13.22
2018-07-03T03:20:53.837Z,13.22
2018-07-03T03:23:21.853Z,13.19
2018-07-03T03:25:49.719Z,13.21
2018-07-03T03:28:17.548Z,13.16
2018-07-03T03:30:45.433Z,13.17
2018-07-03T03:33:13.273Z,13.12
2018-07-03T03:35:41.093Z,13.08
2018-07-03T03:38:08.956Z,13.05
2018-07-03T03:40:36.886Z,13.10
2018-07-03T03:43:04.763Z,13.19
2018-07-03T03:45:32.614Z,13.19
2018-07-03T03:48:00.524Z,13.13
2018-07-03T03:50:28.397Z,13.20
2018-07-03T03:52:56.340Z,13.13
2018-07-03T03:55:24.354Z,13.22
2018-07-03T03:57:52.231Z,13.23
2018-07-03T04:00:20.096Z,13.17
2018-07-03T04:02:47.983Z,13.19
2018-07-03T04:05:15.868Z,13.35
2018-07-03T04:07:43.775Z,13.29
2018-07-03T04:10:11.673Z,13.21
2018-07-03T04:12:39.544Z,13.29
2018-07-03T04:15:07.828Z,13.36
2018-07-03T04:17:35.905Z,13.43
2018-07-03T04:20:04.249Z,13.48
2018-07-03T04:22:32.181Z,13.47
2018-07-03T04:25:00.053Z,13.51
2018-07-03T04:27:28.000Z,13.62
2018-07-03T04:29:55.969Z,13.55
2018-07-03T04:32:23.877Z,13.62
2018-07-03T04:34:51.768Z,13.75
2018-07-03T04:37:19.674Z,13.80
2018-07-03T04:39:47.640Z,13.84
2018-07-03T04:42:15.497Z,13.89
2018-07-03T04:44:43.440Z,13.88
2018-07-03T04:47:11.329Z,14.00
2018-07-03T04:49:39.246Z,14.06
2018-07-03T04:52:07.205Z,14.24
2018-07-03T04:54:35.174Z,14.65
2018-07-03T04:57:03.089Z,15.36
2018-07-03T04:59:31.058Z,16.27
2018-07-03T05:01:58.981Z,17.29
2018-07-03T05:04:26.941Z,18.39
2018-07-03T05:06:54.832Z,19.21
2018-07-03T05:09:22.717Z,20.11
2018-07-03T05:11:50.620Z,21.01
2018-07-03T05:14:18.436Z,21.91
2018-07-03T05:16:50.916Z,22.66
2018-07-03T05:19:18.816Z,23.40
2018-07-03T05:21:46.724Z,24.10
2018-07-03T05:24:14.601Z,24.72
2018-07-03T05:26:42.461Z,25.07
2018-07-03T05:29:10.353Z,25.69
2018-07-03T05:31:38.350Z,26.48
2018-07-03T05:34:06.900Z,26.83
2018-07-03T05:36:34.976Z,27.34
2018-07-03T05:39:03.048Z,28.06
2018-07-03T05:41:30.969Z,28.07
2018-07-03T05:43:58.865Z,28.33
2018-07-03T05:46:26.817Z,28.62
2018-07-03T05:48:54.678Z,29.16
2018-07-03T05:51:22.628Z,29.56
2018-07-03T05:53:50.465Z,29.30
2018-07-03T05:56:18.393Z,28.88
2018-07-03T05:58:46.318Z,28.67
2018-07-03T06:01:14.149Z,28.65
2018-07-03T06:03:42.117Z,27.91
2018-07-03T06:06:09.944Z,27.48
2018-07-03T06:08:37.893Z,27.10
2018-07-03T06:11:05.813Z,26.79
2018-07-03T06:13:33.690Z,26.75
2018-07-03T06:16:01.547Z,26.98
2018-07-03T06:18:29.471Z,26.78
2018-07-03T06:20:57.396Z,26.85
2018-07-03T06:23:25.273Z,26.73
2018-07-03T06:25:53.243Z,26.58
2018-07-03T06:28:21.168Z,26.47
2018-07-03T06:30:49.168Z,26.81
2018-07-03T06:33:17.070Z,26.28
2018-07-03T06:35:44.874Z,26.79
2018-07-03T06:38:12.837Z,26.78
2018-07-03T06:40:40.677Z,26.62
2018-07-03T06:43:08.541Z,26.00
2018-07-03T06:45:36.499Z,25.93
2018-07-03T06:48:04.470Z,25.67
2018-07-03T06:50:32.393Z,25.30
2018-07-03T06:53:00.261Z,25.38
2018-07-03T06:55:28.174Z,25.43
2018-07-03T06:57:56.195Z,25.11
2018-07-03T07:00:24.014Z,25.21
2018-07-03T07:02:51.897Z,25.38
2018-07-03T07:05:19.800Z,25.28
2018-07-03T07:07:47.637Z,25.28
2018-07-03T07:10:15.498Z,25.09
2018-07-03T07:12:43.381Z,25.05
2018-07-03T07:15:11.289Z,25.06
2018-07-03T07:17:39.221Z,25.03
2018-07-03T07:20:07.208Z,24.93
2018-07-03T07:22:35.268Z,24.94
2018-07-03T07:25:03.156Z,25.02
2018-07-03T07:27:31.093Z,24.68
2018-07-03T07:29:58.905Z,24.84
2018-07-03T07:32:26.836Z,24.72
2018-07-03T07:34:54.841Z,24.54
2018-07-03T07:37:22.744Z,24.66
2018-07-03T07:39:50.648Z,24.61
2018-07-03T07:42:18.601Z,24.30
2018-07-03T07:44:46.426Z,24.49
2018-07-03T07:47:14.294Z,24.39
2018-07-03T07:49:42.656Z,24.16
2018-07-03T07:52:10.220Z,24.07
2018-07-03T07:54:38.139Z,24.16
2018-07-03T07:57:06.026Z,24.05
2018-07-03T07:59:33.878Z,24.01
2018-07-03T08:02:01.820Z,23.78
2018-07-03T08:04:29.664Z,23.77
2018-07-03T08:06:57.603Z,23.83
2018-07-03T08:09:25.471Z,23.61
2018-07-03T08:11:53.368Z,23.66
2018-07-03T08:14:21.281Z,23.74
2018-07-03T08:16:49.115Z,23.64
2018-07-03T08:19:17.027Z,23.72
2018-07-03T08:21:44.825Z,23.65
2018-07-03T08:24:12.676Z,23.80
2018-07-03T08:26:40.599Z,23.84
2018-07-03T08:29:08.492Z,23.78
2018-07-03T08:31:36.322Z,23.70
2018-07-03T08:34:04.248Z,23.70
2018-07-03T08:36:32.077Z,23.85
2018-07-03T08:38:59.913Z,23.67
2018-07-03T08:41:27.836Z,23.86
2018-07-03T08:43:55.736Z,23.81
2018-07-03T08:46:23.584Z,23.85
2018-07-03T08:48:51.409Z,23.87
2018-07-03T08:51:19.316Z,23.89
2018-07-03T08:53:47.101Z,23.85
2018-07-03T08:56:14.900Z,23.90
2018-07-03T08:58:42.765Z,23.96
2018-07-03T09:01:10.672Z,23.92
2018-07-03T09:03:38.547Z,23.99
2018-07-03T09:06:06.536Z,24.03
2018-07-03T09:08:34.373Z,24.10
2018-07-03T09:11:02.322Z,24.06
2018-07-03T09:13:30.158Z,24.21
2018-07-03T09:15:58.061Z,24.29
2018-07-03T09:18:25.961Z,24.19
2018-07-03T09:20:53.817Z,24.20
2018-07-03T09:23:21.725Z,24.18
2018-07-03T09:25:49.681Z,24.27
2018-07-03T09:28:17.541Z,24.46
2018-07-03T09:30:45.436Z,24.56
2018-07-03T09:33:13.258Z,24.62
2018-07-03T09:35:41.079Z,24.66
2018-07-03T09:38:08.959Z,24.70
2018-07-03T09:40:37.537Z,24.72
2018-07-03T09:43:05.605Z,24.90
2018-07-03T09:45:33.457Z,25.09
2018-07-03T09:48:01.326Z,25.39
2018-07-03T09:50:29.189Z,25.47
2018-07-03T09:52:57.157Z,25.82
2018-07-03T09:55:25.023Z,26.78
2018-07-03T09:57:53.242Z,28.12
2018-07-03T10:00:26.806Z,29.55
2018-07-03T10:02:55.249Z,30.16
2018-07-03T10:05:23.137Z,31.54
2018-07-03T10:07:50.981Z,32.67
2018-07-03T10:10:18.876Z,33.33
2018-07-03T10:12:46.812Z,34.17
2018-07-03T10:15:14.746Z,34.59
2018-07-03T10:17:42.597Z,35.43
2018-07-03T10:20:10.464Z,36.32
2018-07-03T10:22:38.377Z,36.68
2018-07-03T10:25:06.300Z,37.54
2018-07-03T10:27:34.254Z,38.05
2018-07-03T10:30:02.112Z,38.70
2018-07-03T10:32:30.074Z,39.52
2018-07-03T10:34:58.036Z,39.73
2018-07-03T10:37:25.935Z,40.00
2018-07-03T10:39:53.913Z,40.77
2018-07-03T10:42:21.901Z,41.35
2018-07-03T10:44:49.753Z,41.05
2018-07-03T10:47:17.666Z,40.75
2018-07-03T10:49:45.592Z,40.80
2018-07-03T10:52:13.461Z,40.43
2018-07-03T10:54:41.473Z,40.72
2018-07-03T10:57:09.608Z,41.09
2018-07-03T10:59:37.570Z,41.33
2018-07-03T11:02:05.880Z,41.52
2018-07-03T11:04:33.705Z,41.92
2018-07-03T11:07:01.609Z,42.56
2018-07-03T11:09:29.457Z,42.47
2018-07-03T11:11:57.292Z,42.68
2018-07-03T11:14:25.168Z,43.23
2018-07-03T11:16:53.046Z,43.07
2018-07-03T11:19:20.897Z,42.97
2018-07-03T11:21:48.788Z,42.70
2018-07-03T11:24:17.055Z,43.12
2018-07-03T11:26:44.939Z,43.60
2018-07-03T11:29:12.780Z,43.89
2018-07-03T11:31:40.632Z,43.05
2018-07-03T11:34:08.501Z,43.37
2018-07-03T11:36:36.376Z,43.64
2018-07-03T11:39:07.043Z,43.76
2018-07-03T11:41:35.114Z,43.80
2018-07-03T11:44:03.044Z,43.92
2018-07-03T11:46:30.965Z,44.31
2018-07-03T11:48:58.869Z,43.85
2018-07-03T11:51:26.725Z,43.99
2018-07-03T11:53:54.547Z,43.93
2018-07-03T11:56:22.528Z,44.20
2018-07-03T11:58:50.477Z,44.29
2018-07-03T12:01:18.507Z,44.29
2018-07-03T12:03:46.276Z,44.17
2018-07-03T12:06:14.341Z,44.19
2018-07-03T12:08:42.314Z,44.28
2018-07-03T12:11:10.435Z,44.14
2018-07-03T12:13:38.360Z,44.02
2018-07-03T12:16:06.245Z,43.54
2018-07-03T12:18:39.768Z,44.10
2018-07-03T12:21:07.636Z,44.12
2018-07-03T12:23:35.657Z,44.09
2018-07-03T12:26:03.554Z,44.17
2018-07-03T12:28:31.587Z,43.86
2018-07-03T12:30:59.420Z,43.81
2018-07-03T12:33:27.278Z,43.82
2018-07-03T12:35:55.125Z,43.85
2018-07-03T12:38:23.064Z,43.64
2018-07-03T12:40:50.996Z,43.58
2018-07-03T12:43:18.909Z,43.52
2018-07-03T12:45:46.893Z,43.42
2018-07-03T12:48:14.732Z,43.67
2018-07-03T12:50:42.644Z,43.50
2018-07-03T12:53:10.600Z,43.41
2018-07-03T12:55:38.494Z,43.27
2018-07-03T12:58:06.356Z,42.97
2018-07-03T13:00:34.386Z,42.45
2018-07-03T13:03:02.281Z,42.29
2018-07-03T13:05:30.178Z,41.78
2018-07-03T13:07:58.031Z,40.75
2018-07-03T13:10:25.917Z,41.01
2018-07-03T13:12:53.833Z,40.87
2018-07-03T13:15:21.704Z,40.59
2018-07-03T13:17:49.620Z,40.00
2018-07-03T13:20:17.477Z,40.06
2018-07-03T13:22:45.353Z,39.56
2018-07-03T13:25:13.373Z,39.45
2018-07-03T13:27:42.525Z,39.01
2018-07-03T13:30:10.700Z,38.92
2018-07-03T13:32:38.572Z,38.29
2018-07-03T13:35:07.943Z,38.07
2018-07-03T13:37:36.108Z,37.76
2018-07-03T13:40:05.493Z,37.44
2018-07-03T13:42:33.365Z,37.26
2018-07-03T13:45:01.249Z,36.95
2018-07-03T13:47:29.097Z,36.71
2018-07-03T13:49:57.050Z,36.35
2018-07-03T13:52:25.333Z,36.37
2018-07-03T13:54:53.290Z,36.20
2018-07-03T13:57:21.237Z,36.12
2018-07-03T13:59:49.113Z,36.06
2018-07-03T14:02:17.067Z,36.03
2018-07-03T14:04:44.918Z,35.68
2018-07-03T14:07:13.069Z,35.85
2018-07-03T14:09:40.994Z,35.71
2018-07-03T14:12:08.877Z,35.66
2018-07-03T14:14:36.952Z,35.09
2018-07-03T14:17:04.748Z,35.09
2018-07-03T14:19:36.832Z,34.95
2018-07-03T14:22:04.941Z,34.77
2018-07-03T14:24:32.817Z,34.70
2018-07-03T14:27:00.714Z,34.46
2018-07-03T14:29:30.600Z,34.20
2018-07-03T14:31:58.435Z,34.02
2018-07-03T14:34:26.380Z,33.89
2018-07-03T14:36:56.193Z,33.80
2018-07-03T14:39:25.905Z,33.60
2018-07-03T14:41:53.896Z,33.10
2018-07-03T14:44:21.855Z,32.76
2018-07-03T14:46:49.980Z,32.61
2018-07-03T14:49:17.936Z,32.61
2018-07-03T14:51:45.949Z,32.66
2018-07-03T14:54:13.800Z,32.60
2018-07-03T14:56:41.716Z,32.60
2018-07-03T14:59:09.721Z,32.56
2018-07-03T15:01:38.177Z,32.42
2018-07-03T15:04:06.037Z,32.42
2018-07-03T15:06:34.973Z,32.18
2018-07-03T15:09:05.604Z,32.27
2018-07-03T15:11:34.245Z,32.32
2018-07-03T15:14:03.225Z,32.12
2018-07-03T15:16:31.514Z,32.20
2018-07-03T15:19:04.928Z,32.21
2018-07-03T15:21:32.753Z,32.04
2018-07-03T15:24:00.613Z,32.09
2018-07-03T15:26:28.515Z,32.32
2018-07-03T15:28:56.289Z,32.16
2018-07-03T15:31:24.132Z,32.01
2018-07-03T15:33:52.488Z,31.77
2018-07-03T15:36:20.728Z,31.70
2018-07-03T15:38:48.607Z,31.57
2018-07-03T15:41:16.676Z,31.53
2018-07-03T15:44:01.980Z,31.46
2018-07-03T15:46:29.863Z,31.58
2018-07-03T15:48:57.742Z,31.61
2018-07-03T15:51:25.652Z,31.62
2018-07-03T15:53:54.576Z,31.61
2018-07-03T15:56:22.557Z,31.58
2018-07-03T15:58:50.444Z,31.54
2018-07-03T16:01:19.219Z,31.46
2018-07-03T16:05:03.509Z,31.41
2018-07-03T16:08:50.652Z,31.30
2018-07-03T16:11:18.595Z,31.25
2018-07-03T16:13:46.426Z,31.31
2018-07-03T16:16:15.093Z,31.31
2018-07-03T16:18:42.989Z,31.08
2018-07-03T16:21:10.857Z,31.10
2018-07-03T16:23:38.734Z,31.16
2018-07-03T16:26:06.697Z,31.19
2018-07-03T16:28:34.646Z,31.24
2018-07-03T16:31:02.556Z,31.19
2018-07-03T16:33:30.573Z,31.05
2018-07-03T16:35:58.434Z,31.16
2018-07-03T16:38:26.349Z,31.07
2018-07-03T16:40:54.289Z,31.09
2018-07-03T16:43:22.158Z,30.90
2018-07-03T16:45:50.016Z,30.77
2018-07-03T16:48:18.034Z,30.87
2018-07-03T16:50:47.897Z,30.80
2018-07-03T16:53:24.221Z,30.61
2018-07-03T16:55:52.065Z,30.57
2018-07-03T16:58:19.944Z,30.60
2018-07-03T17:00:47.815Z,30.43
2018-07-03T17:03:15.781Z,30.37
2018-07-03T17:05:43.715Z,30.35
2018-07-03T17:08:11.673Z,30.33
2018-07-03T17:10:39.625Z,30.15
2018-07-03T17:13:07.572Z,30.04
2018-07-03T17:15:35.477Z,29.90
2018-07-03T17:18:03.365Z,29.78
2018-07-03T17:20:31.179Z,29.71
2018-07-03T17:22:59.049Z,29.49
2018-07-03T17:25:26.936Z,29.50
2018-07-03T17:27:54.786Z,29.34
2018-07-03T17:30:22.841Z,29.20
2018-07-03T17:32:50.747Z,29.15
2018-07-03T17:35:18.690Z,29.05
2018-07-03T17:37:46.630Z,28.83
2018-07-03T17:40:31.877Z,28.84
2018-07-03T17:44:26.457Z,28.80
2018-07-03T17:46:54.385Z,28.60
2018-07-03T17:49:22.272Z,28.64
2018-07-03T17:51:50.153Z,28.52
2018-07-03T17:54:18.178Z,28.45
2018-07-03T17:56:46.070Z,28.33
2018-07-03T17:59:13.976Z,28.39
2018-07-03T18:01:41.911Z,28.30
2018-07-03T18:04:13.290Z,28.16
2018-07-03T18:06:41.187Z,28.24
2018-07-03T18:09:11.141Z,28.06
2018-07-03T18:11:39.080Z,27.97
2018-07-03T18:14:07.152Z,28.03
2018-07-03T18:16:34.997Z,27.83
2018-07-03T18:19:08.772Z,27.65
2018-07-03T18:21:36.684Z,27.74
2018-07-03T18:24:05.103Z,27.78
2018-07-03T18:26:33.376Z,27.54
2018-07-03T18:29:01.378Z,27.49
2018-07-03T18:31:29.297Z,27.42
2018-07-03T18:33:57.250Z,27.46
2018-07-03T18:36:25.093Z,27.30
2018-07-03T18:38:52.957Z,27.19
2018-07-03T18:41:20.876Z,27.05
2018-07-03T18:43:48.749Z,27.01
2018-07-03T18:46:16.664Z,26.94
2018-07-03T18:48:44.605Z,26.92
2018-07-03T18:51:12.526Z,26.84
2018-07-03T18:53:40.404Z,26.75
2018-07-03T18:56:08.271Z,26.57
2018-07-03T18:58:36.217Z,26.58
2018-07-03T19:01:04.240Z,26.47
2018-07-03T19:03:32.200Z,26.33
2018-07-03T19:06:00.095Z,26.26
2018-07-03T19:08:27.908Z,26.11
2018-07-03T19:10:55.789Z,25.91
2018-07-03T19:13:23.717Z,25.85
2018-07-03T19:15:51.568Z,25.71
2018-07-03T19:18:19.475Z,25.53
2018-07-03T19:20:47.566Z,25.30
2018-07-03T19:23:15.521Z,25.34
2018-07-03T19:25:43.465Z,25.39
2018-07-03T19:28:11.342Z,25.36
2018-07-03T19:30:39.239Z,25.31
2018-07-03T19:33:07.150Z,24.85
2018-07-03T19:35:34.942Z,24.97
2018-07-03T19:38:03.125Z,24.66
2018-07-03T19:40:30.916Z,24.66
2018-07-03T19:43:32.538Z,24.39
2018-07-03T19:46:01.121Z,24.11
2018-07-03T19:48:28.957Z,24.00
2018-07-03T19:50:56.940Z,23.90
2018-07-03T19:53:24.768Z,23.78
2018-07-03T19:55:53.903Z,23.59
2018-07-03T19:58:22.060Z,23.45
2018-07-03T20:00:51.013Z,23.40
2018-07-03T20:03:18.961Z,23.35
2018-07-03T20:05:46.829Z,23.47
2018-07-03T20:08:14.757Z,23.32
2018-07-03T20:10:42.730Z,23.28
2018-07-03T20:13:12.822Z,23.04
2018-07-03T20:15:40.694Z,23.13
2018-07-03T20:18:10.170Z,23.16
2018-07-03T20:20:38.341Z,23.00
2018-07-03T20:23:06.314Z,23.06
2018-07-03T20:25:35.049Z,22.82
2018-07-03T20:28:02.969Z,22.70
2018-07-03T20:30:30.904Z,22.56
2018-07-03T20:32:58.985Z,22.33
2018-07-03T20:35:27.021Z,22.31
2018-07-03T20:38:03.120Z,22.19
2018-07-03T20:41:03.161Z,22.09
2018-07-03T20:43:32.511Z,22.02
2018-07-03T20:46:00.445Z,22.22
2018-07-03T20:48:28.465Z,22.38
2018-07-03T20:50:57.141Z,22.13
2018-07-03T20:53:25.097Z,22.08
2018-07-03T20:55:53.007Z,22.02
2018-07-03T20:58:21.216Z,21.79
2018-07-03T21:00:49.061Z,21.71
2018-07-03T21:03:16.985Z,21.61
2018-07-03T21:05:44.819Z,21.91
2018-07-03T21:08:12.718Z,21.72
2018-07-03T21:10:40.677Z,21.38
2018-07-03T21:13:08.599Z,21.45
2018-07-03T21:15:36.429Z,21.21
2018-07-03T21:18:04.327Z,21.11
2018-07-03T21:20:32.251Z,20.89
2018-07-03T21:23:00.264Z,20.84
2018-07-03T21:25:28.169Z,20.64
2018-07-03T21:27:56.044Z,20.48
2018-07-03T21:30:23.970Z,20.26
2018-07-03T21:32:51.837Z,20.58
2018-07-03T21:35:20.473Z,20.66
2018-07-03T21:37:48.567Z,20.59
2018-07-03T21:40:16.454Z,20.48
2018-07-03T21:42:44.308Z,20.52
2018-07-03T21:45:12.089Z,20.42
2018-07-03T21:47:39.881Z,20.32
2018-07-03T21:50:07.789Z,20.16
2018-07-03T21:52:35.645Z,20.17
2018-07-03T21:55:03.589Z,20.09
2018-07-03T21:57:31.501Z,19.93
2018-07-03T21:59:59.424Z,19.95
2018-07-03T22:02:27.290Z,19.66
2018-07-03T22:04:55.125Z,19.94
2018-07-03T22:07:23.064Z,19.66
2018-07-03T22:09:51.009Z,19.70
2018-07-03T22:12:18.876Z,19.69
2018-07-03T22:14:46.754Z,19.82
2018-07-03T22:17:14.601Z,19.94
2018-07-03T22:19:42.530Z,19.80
2018-07-03T22:22:10.465Z,19.92
2018-07-03T22:24:38.256Z,19.79
2018-07-03T22:27:06.100Z,19.72
2018-07-03T22:29:33.907Z,19.60
2018-07-03T22:32:11.179Z,19.41
2018-07-03T22:34:40.097Z,19.35
2018-07-03T22:37:07.991Z,19.21
2018-07-03T22:39:39.818Z,19.18
2018-07-03T22:42:12.418Z,19.09
2018-07-03T22:44:40.782Z,19.18
2018-07-03T22:47:08.789Z,19.06
2018-07-03T22:49:36.595Z,19.13
2018-07-03T22:52:04.757Z,19.02
2018-07-03T22:54:32.641Z,19.18
2018-07-03T22:57:00.589Z,18.95
2018-07-03T22:59:28.448Z,19.00
2018-07-03T23:01:56.286Z,19.08
2018-07-03T23:04:24.221Z,19.09
2018-07-03T23:06:52.243Z,18.84
2018-07-03T23:09:20.174Z,18.86
2018-07-03T23:11:48.034Z,18.85
2018-07-03T23:14:15.932Z,18.59
2018-07-03T23:16:43.836Z,18.72
2018-07-03T23:19:11.756Z,18.82
2018-07-03T23:21:39.679Z,18.87
2018-07-03T23:24:07.577Z,18.80
2018-07-03T23:26:35.439Z,18.73
2018-07-03T23:29:03.281Z,18.60
2018-07-03T23:31:31.146Z,18.43
2018-07-03T23:33:59.043Z,18.37
2018-07-03T23:36:26.941Z,18.58
2018-07-03T23:38:54.897Z,18.50
2018-07-03T23:41:22.809Z,18.57
2018-07-03T23:43:51.223Z,18.47
2018-07-03T23:46:36.417Z,18.50
2018-07-03T23:49:21.508Z,18.44
2018-07-03T23:52:06.604Z,18.39
2018-07-03T23:54:51.632Z,18.31
2018-07-03T23:57:36.817Z,18.46
